Search the data

BODC Cruise Metadata Report for Prince Madog (74PD) cruise ISIS41

Introduction

This report collates information from the BODC cruise inventory and oceanographic databases. It presents

Cruise Inventory Information

Long name Prince Madog (74PD) cruise ISIS41
Short name ISIS41
Objectives and Narrative Survey cruise contributing to research directed toward an understanding of how the physics of the Irish Sea and surrounding regions (Celtic Sea, St, George's Channel, North Channel and Clyde Sea) determined biogeochemical processes and sediment transport.
Ship Prince Madog
Departure Port Menai Bridge, United Kingdom
Departure Date 1985-05-06
Arrival Port Menai Bridge, United Kingdom
Arrival Date 1985-05-09
Principal Scientist(s) Juan Brown (University of Wales, Bangor School of Ocean Sciences)
Responsible Organisation University of Wales, Bangor School of Ocean Sciences
Associated Project(s) Interdisciplinary Study of the Irish Sea
IHB Sea Areas Visited Irish Sea and St. George's Channel
Marsden Squares Visited 181;133/181;134
Work Area Description
Work Area Bounding Polygon 53N,5W; 54N,5W; 54N,3W; 53N,3W; 53N,5W
Southern Limit 53N
Northern Limit 54N
Western Limit 5W
Eastern Limit 3W

Cruise Inventory Datasets

Physical oceanography  
CTD stations Quantity: number of stations = 50
Description: disc  
Current meters Quantity: 1
Description:  
Current profiler (eg ADCP) Quantity: activity duration in days = 4
Description: doppler shift(bed mounted)  
Optics (eg underwater light levels) Quantity: 9
Description: disc,irradiance meter  
Other physical oceanographic measurements Quantity: activity duration in days = 30
Description: HF Radar(OSCR)  
Surface measurements underway (T,S) Description:  
Transparency (eg transmissometer) Description:  
Water bottle stations Quantity: number of stations = 28
Description: surface only  
Chemical oceanography  
Trace elements Quantity: 33
Description:  
Contamination  
Trace metals Quantity: 33
Description:  
Biology and fisheries  
Dissolved organic matter (inc DOC) Quantity: 50
Description:  
Phytoplankton pigs (eg chlorophyll, fluorescence) Quantity: 50
Description:  
Seston Quantity: 50
Description:  
Meteorology  
Incident radiation Description:  
Upper air observations Description: deadalus multi spectral scanner from NERC aircraft  

Cruise Inventory Mooring/Buoy Operations

No information on datasets is currently available

Summary of BODC Data Holdings for the Cruise

National Oceanographic Database

Summary

# Series Instrument Description Parameters
73 CTD/STD cast Electrical conductivity of the water column
Salinity of the water column
Temperature of the water column
Vertical spatial coordinates

Note: Parameter terms are taken from the BODC Parameter Discovery Vocabulary XML (SKOS)

Full List

BODC Reference Instrument Description Date/Time Location  
286481 CTD/STD cast 1985-05-06 23:16Z 53° 34' N, 3° 30' W Click for more
286493 CTD/STD cast 1985-05-07 00:20Z 53° 34' N, 3° 40' W Click for more
286500 CTD/STD cast 1985-05-07 01:15Z 53° 34' N, 3° 49' W Click for more
286512 CTD/STD cast 1985-05-07 02:05Z 53° 30' N, 3° 49' W Click for more
286524 CTD/STD cast 1985-05-07 03:08Z 53° 30' N, 3° 40' W Click for more
286536 CTD/STD cast 1985-05-07 04:22Z 53° 30' N, 3° 30' W Click for more
286548 CTD/STD cast 1985-05-07 05:13Z 53° 30' N, 3° 21' W Click for more
286561 CTD/STD cast 1985-05-07 06:05Z 53° 25' N, 3° 19' W Click for more
286573 CTD/STD cast 1985-05-07 08:05Z 53° 25' N, 3° 40' W Click for more
286585 CTD/STD cast 1985-05-06 15:55Z 53° 24' N, 4° 1' W Click for more
286597 CTD/STD cast 1985-05-07 10:22Z 53° 27' N, 3° 45' W Click for more
286604 CTD/STD cast 1985-05-09 03:00Z 53° 27' N, 3° 45' W Click for more
286616 CTD/STD cast 1985-05-07 11:10Z 53° 27' N, 3° 34' W Click for more
286628 CTD/STD cast 1985-05-09 04:00Z 53° 27' N, 3° 34' W Click for more
286641 CTD/STD cast 1985-05-07 12:03Z 53° 27' N, 3° 25' W Click for more
286653 CTD/STD cast 1985-05-09 05:03Z 53° 27' N, 3° 25' W Click for more
286665 CTD/STD cast 1985-05-09 16:03Z 53° 27' N, 3° 15' W Click for more
286677 CTD/STD cast 1985-05-08 20:38Z 53° 32' N, 3° 15' W Click for more
286689 CTD/STD cast 1985-05-08 23:28Z 53° 32' N, 3° 25' W Click for more
286690 CTD/STD cast 1985-05-08 22:29Z 53° 32' N, 3° 30' W Click for more
286708 CTD/STD cast 1985-05-08 22:58Z 53° 34' N, 3° 25' W Click for more
286721 CTD/STD cast 1985-05-08 21:35Z 53° 32' N, 3° 25' W Click for more
286733 CTD/STD cast 1985-05-08 23:59Z 53° 30' N, 3° 25' W Click for more
286745 CTD/STD cast 1985-05-09 01:03Z 53° 32' N, 3° 34' W Click for more
286757 CTD/STD cast 1985-05-09 02:10Z 53° 32' N, 3° 45' W Click for more
286769 CTD/STD cast 1985-05-08 16:27Z 53° 37' N, 3° 45' W Click for more
286770 CTD/STD cast 1985-05-06 16:42Z 53° 30' N, 4° 0' W Click for more
286782 CTD/STD cast 1985-05-06 16:42Z 53° 30' N, 4° 0' W Click for more
286794 CTD/STD cast 1985-05-07 17:37Z 53° 37' N, 3° 34' W Click for more
286801 CTD/STD cast 1985-05-08 17:45Z 53° 37' N, 3° 34' W Click for more
286813 CTD/STD cast 1985-05-07 16:30Z 53° 37' N, 3° 25' W Click for more
286825 CTD/STD cast 1985-05-08 18:40Z 53° 37' N, 3° 25' W Click for more
286837 CTD/STD cast 1985-05-08 19:35Z 53° 37' N, 3° 15' W Click for more
286849 CTD/STD cast 1985-05-08 09:45Z 53° 42' N, 3° 15' W Click for more
286850 CTD/STD cast 1985-05-07 15:31Z 53° 42' N, 3° 25' W Click for more
286862 CTD/STD cast 1985-05-08 11:15Z 53° 42' N, 3° 25' W Click for more
286874 CTD/STD cast 1985-05-08 14:11Z 53° 42' N, 3° 34' W Click for more
286886 CTD/STD cast 1985-05-08 15:30Z 53° 42' N, 3° 45' W Click for more
286898 CTD/STD cast 1985-05-07 13:15Z 53° 34' N, 3° 30' W Click for more
286905 CTD/STD cast 1985-05-07 14:30Z 53° 40' N, 3° 30' W Click for more
286917 CTD/STD cast 1985-05-06 17:30Z 53° 34' N, 4° 0' W Click for more
286929 CTD/STD cast 1985-05-07 19:30Z 53° 40' N, 3° 25' W Click for more
286930 CTD/STD cast 1985-05-07 20:00Z 53° 40' N, 3° 25' W Click for more
286942 CTD/STD cast 1985-05-07 20:30Z 53° 40' N, 3° 25' W Click for more
286954 CTD/STD cast 1985-05-07 21:00Z 53° 40' N, 3° 25' W Click for more
286966 CTD/STD cast 1985-05-07 21:30Z 53° 40' N, 3° 25' W Click for more
286978 CTD/STD cast 1985-05-07 22:00Z 53° 40' N, 3° 25' W Click for more
286991 CTD/STD cast 1985-05-07 22:30Z 53° 40' N, 3° 25' W Click for more
287005 CTD/STD cast 1985-05-07 23:00Z 53° 40' N, 3° 25' W Click for more
287017 CTD/STD cast 1985-05-07 23:30Z 53° 40' N, 3° 25' W Click for more
287029 CTD/STD cast 1985-05-08 00:00Z 53° 40' N, 3° 25' W Click for more
287030 CTD/STD cast 1985-05-08 00:30Z 53° 40' N, 3° 25' W Click for more
287042 CTD/STD cast 1985-05-08 01:00Z 53° 40' N, 3° 25' W Click for more
287054 CTD/STD cast 1985-05-08 01:30Z 53° 40' N, 3° 25' W Click for more
287066 CTD/STD cast 1985-05-08 02:00Z 53° 40' N, 3° 25' W Click for more
287078 CTD/STD cast 1985-05-08 02:30Z 53° 40' N, 3° 25' W Click for more
287091 CTD/STD cast 1985-05-08 03:00Z 53° 40' N, 3° 25' W Click for more
287109 CTD/STD cast 1985-05-08 03:30Z 53° 40' N, 3° 25' W Click for more
287110 CTD/STD cast 1985-05-08 04:00Z 53° 40' N, 3° 25' W Click for more
287122 CTD/STD cast 1985-05-08 04:30Z 53° 40' N, 3° 25' W Click for more
287134 CTD/STD cast 1985-05-08 05:00Z 53° 40' N, 3° 25' W Click for more
287146 CTD/STD cast 1985-05-08 05:30Z 53° 40' N, 3° 25' W Click for more
287158 CTD/STD cast 1985-05-08 06:00Z 53° 40' N, 3° 25' W Click for more
287171 CTD/STD cast 1985-05-08 06:30Z 53° 40' N, 3° 25' W Click for more
287183 CTD/STD cast 1985-05-08 07:00Z 53° 40' N, 3° 25' W Click for more
287195 CTD/STD cast 1985-05-08 07:30Z 53° 40' N, 3° 25' W Click for more
287202 CTD/STD cast 1985-05-08 08:00Z 53° 40' N, 3° 25' W Click for more
287214 CTD/STD cast 1985-05-06 18:18Z 53° 40' N, 4° 0' W Click for more
287226 CTD/STD cast 1985-05-06 19:13Z 53° 40' N, 3° 49' W Click for more
287238 CTD/STD cast 1985-05-06 20:03Z 53° 40' N, 3° 40' W Click for more
287251 CTD/STD cast 1985-05-06 20:50Z 53° 40' N, 3° 30' W Click for more
287263 CTD/STD cast 1985-05-06 21:28Z 53° 40' N, 3° 19' W Click for more
287275 CTD/STD cast 1985-05-06 22:17Z 53° 34' N, 3° 19' W Click for more

Project Database

No data currently held for this cruise in the BODC Project Database

References

Track Charts

No track charts currently available

Reports

No reports currently available